Time;durP1;ratioP1;P1;durP2;ratioP2;P2;SDS_P1;SDS_P2;PMS_P1;PMS_P2;Temp;Humidity;BMP_temperature;BMP_pressure;BME280_temperature;BME280_humidity;BME280_pressure;Samples;Min_cycle;Max_cycle;Signal;HPM_P1;HPM_P2
2022/04/28 00:00:58;;;;;;;10.47;5.97;;;;;;;12.63;78.15;100848.84;5358897;32;34705;-61
2022/04/28 00:04:00;;;;;;;10.53;6.17;;;;;;;13.19;76.08;100836.84;5373683;32;34789;-63
2022/04/28 00:07:03;;;;;;;10.60;6.07;;;;;;;12.26;79.76;100843.28;5357670;32;35399;-63
2022/04/28 00:10:06;;;;;;;11.18;6.35;;;;;;;12.16;79.51;100834.88;5369144;32;42496;-62
2022/04/28 00:13:09;;;;;;;;;;;;;;;12.37;80.22;100843.75;5363994;32;34858;-63
2022/04/28 00:16:11;;;;;;;10.70;6.00;;;;;;;12.06;81.30;100842.28;5362931;32;34933;-62
2022/04/28 00:19:13;;;;;;;11.43;5.23;;;;;;;12.13;80.79;100838.50;5380043;32;34531;-61
2022/04/28 00:22:17;;;;;;;13.07;6.23;;;;;;;12.40;77.90;100835.69;5359740;32;35183;-62
2022/04/28 00:25:21;;;;;;;9.85;5.70;;;;;;;12.89;76.50;100833.72;5374090;32;34783;-61
2022/04/28 00:28:23;;;;;;;10.57;5.87;;;;;;;12.65;77.09;100831.16;5352809;32;34371;-62
2022/04/28 00:31:25;;;;;;;10.23;6.00;;;;;;;12.73;75.98;100828.19;5364060;32;34775;-61
2022/04/28 00:34:27;;;;;;;10.00;6.23;;;;;;;12.34;79.28;100833.28;5367562;32;34576;-61
2022/04/28 00:37:29;;;;;;;13.40;6.17;;;;;;;12.80;76.93;100829.66;5356849;32;34724;-61
2022/04/28 00:40:31;;;;;;;11.10;6.10;;;;;;;12.07;77.54;100836.09;5374972;32;34645;-62
2022/04/28 00:43:33;;;;;;;10.67;6.20;;;;;;;12.82;75.40;100841.03;5358107;32;35536;-63
2022/04/28 00:46:35;;;;;;;11.90;6.13;;;;;;;12.64;76.50;100840.00;5356238;32;44114;-62
2022/04/28 00:53:00;;;;;;;11.30;5.97;;;;;;;12.97;73.95;100835.09;5357180;32;34451;-62
2022/04/28 00:56:03;;;;;;;10.95;6.20;;;;;;;12.34;75.95;100852.59;5366944;32;34695;-61
2022/04/28 00:59:06;;;;;;;12.13;6.10;;;;;;;12.63;75.13;100816.31;5358575;32;44102;-61
2022/04/28 01:02:10;;;;;;;11.35;6.10;;;;;;;13.27;72.50;100834.78;5373954;32;34907;-62
2022/04/28 01:05:12;;;;;;;10.50;5.60;;;;;;;12.91;74.18;100832.72;5361654;32;34518;-61
2022/04/28 01:08:15;;;;;;;10.00;5.63;;;;;;;12.33;77.49;100832.44;5372145;32;34644;-62
2022/04/28 01:11:18;;;;;;;10.88;6.15;;;;;;;12.41;76.16;100838.25;5362968;32;35418;-62
2022/04/28 01:14:20;;;;;;;9.85;5.35;;;;;;;12.56;75.67;100830.66;5356840;32;33845;-63
2022/04/28 01:17:22;;;;;;;11.03;6.40;;;;;;;13.47;71.82;100824.19;5375654;32;34932;-63
2022/04/28 01:20:24;;;;;;;10.37;5.77;;;;;;;12.72;73.98;100829.13;5359606;32;33926;-62
2022/04/28 01:23:27;;;;;;;13.77;6.73;;;;;;;13.20;72.75;100814.78;5374266;32;34611;-60
2022/04/28 01:26:29;;;;;;;11.15;6.45;;;;;;;12.94;73.48;100810.63;5357640;32;35417;-62
2022/04/28 01:29:33;;;;;;;11.67;6.13;;;;;;;12.67;76.08;100812.63;5354980;32;34710;-63
2022/04/28 01:32:35;;;;;;;10.70;5.80;;;;;;;13.00;74.16;100816.50;5359476;32;37960;-62
2022/04/28 01:35:37;;;;;;;9.90;5.57;;;;;;;13.82;68.72;100814.69;5360865;32;34565;-62
2022/04/28 01:38:39;;;;;;;9.70;5.60;;;;;;;12.62;72.80;100802.28;5374104;32;35353;-61
2022/04/28 01:41:42;;;;;;;11.33;6.23;;;;;;;12.81;73.00;100817.31;5359302;32;35318;-61
2022/04/28 01:44:44;;;;;;;12.88;6.12;;;;;;;12.52;74.64;100813.25;5376249;32;36637;-61
2022/04/28 01:47:47;;;;;;;9.70;5.53;;;;;;;13.08;70.98;100794.22;5340915;32;34965;-63
2022/04/28 01:57:30;;;;;;;9.13;5.33;;;;;;;12.65;72.72;100804.78;5358192;32;35464;-61
2022/04/28 02:00:34;;;;;;;9.93;5.43;;;;;;;12.79;71.78;100809.50;5361053;32;35243;-61
2022/04/28 02:03:38;;;;;;;9.23;5.40;;;;;;;12.94;71.56;100816.75;5358341;32;48068;-62
2022/04/28 02:06:43;;;;;;;9.33;5.20;;;;;;;13.61;69.01;100813.00;5367048;32;34600;-62
2022/04/28 02:09:45;;;;;;;8.73;4.60;;;;;;;12.54;72.58;100829.87;5365191;32;34896;-63
2022/04/28 02:12:47;;;;;;;9.88;5.10;;;;;;;13.00;70.22;100821.78;5359239;32;33940;-61
2022/04/28 02:15:50;;;;;;;9.20;5.20;;;;;;;12.28;73.31;100823.00;5375637;32;34749;-63
2022/04/28 02:18:52;;;;;;;10.20;5.23;;;;;;;13.44;70.01;100816.41;5356881;32;34424;-63
2022/04/28 02:21:54;;;;;;;8.60;4.97;;;;;;;13.41;68.42;100805.97;5370258;32;34843;-63
2022/04/28 02:24:56;;;;;;;9.13;5.03;;;;;;;13.08;69.66;100800.34;5360559;32;34906;-63
2022/04/28 02:27:58;;;;;;;10.83;5.23;;;;;;;12.64;71.34;100807.50;5363317;32;35281;-62
2022/04/28 02:31:00;;;;;;;9.50;4.93;;;;;;;12.36;73.08;100797.19;5366971;32;34289;-61
2022/04/28 02:34:02;;;;;;;8.90;4.50;;;;;;;12.65;70.92;100799.50;5359307;32;34930;-62
2022/04/28 02:37:04;;;;;;;9.63;5.50;;;;;;;12.58;71.49;100803.31;5373793;32;34679;-62
2022/04/28 02:40:07;;;;;;;10.83;5.17;;;;;;;12.94;70.26;100800.91;5358711;32;46166;-62
2022/04/28 02:43:15;;;;;;;9.10;4.97;;;;;;;12.51;72.59;100801.00;5373912;32;34126;-61
2022/04/28 02:46:17;;;;;;;7.93;4.70;;;;;;;12.44;71.68;100806.53;5358969;32;34953;-62
2022/04/28 02:49:20;;;;;;;9.35;5.10;;;;;;;12.39;72.71;100810.25;5341547;32;35249;-63
2022/04/28 02:52:22;;;;;;;9.07;4.73;;;;;;;12.97;70.81;100795.53;5369294;32;34819;-61
2022/04/28 02:55:24;;;;;;;9.47;5.07;;;;;;;12.61;71.50;100807.59;5359097;32;34177;-63
2022/04/28 02:58:26;;;;;;;10.27;5.77;;;;;;;12.69;70.53;100803.75;5372377;32;34459;-63
2022/04/28 03:01:28;;;;;;;10.17;4.90;;;;;;;12.82;70.54;100800.59;5357815;32;35683;-61
2022/04/28 03:04:31;;;;;;;8.25;4.55;;;;;;;12.96;70.02;100806.16;5360168;32;34398;-65
2022/04/28 03:11:09;;;;;;;8.27;5.00;;;;;;;12.99;70.35;100811.28;5358677;32;34470;-62
2022/04/28 03:14:12;;;;;;;7.97;4.70;;;;;;;12.68;69.25;100811.69;5374594;32;34977;-62
2022/04/28 03:17:14;;;;;;;9.48;5.20;;;;;;;12.58;70.94;100811.22;5357979;32;34099;-64
2022/04/28 03:20:16;;;;;;;9.83;5.30;;;;;;;12.75;70.75;100813.16;5375757;32;34658;-62
2022/04/28 03:23:18;;;;;;;9.73;5.13;;;;;;;12.62;71.32;100812.84;5357958;32;34939;-61
2022/04/28 03:26:21;;;;;;;9.33;5.17;;;;;;;12.50;70.35;100797.50;5375171;32;34109;-62
2022/04/28 03:29:23;;;;;;;10.68;5.30;;;;;;;13.37;69.03;100814.94;5365104;32;35488;-62
2022/04/28 03:32:25;;;;;;;13.50;5.30;;;;;;;13.68;66.98;100819.75;5358662;32;35245;-62
2022/04/28 03:35:27;;;;;;;8.47;4.73;;;;;;;12.90;68.33;100820.47;5375527;32;34999;-64
2022/04/28 03:38:29;;;;;;;9.47;5.33;;;;;;;13.36;67.71;100817.66;5357143;32;34678;-64
2022/04/28 03:41:31;;;;;;;10.80;5.73;;;;;;;13.04;67.57;100811.09;5383934;32;34714;-63
2022/04/28 03:44:34;;;;;;;9.27;5.27;;;;;;;12.32;73.54;100836.00;5360656;32;35379;-63
2022/04/28 03:47:37;;;;;;;;;;;;;;;12.56;71.40;100830.66;5348332;32;47273;-63
2022/04/28 03:50:39;;;;;;;11.07;5.20;;;;;;;13.26;69.29;100820.69;5364825;32;35978;-63
2022/04/28 03:53:41;;;;;;;10.43;5.33;;;;;;;13.80;65.74;100835.03;5351163;32;34947;-61
2022/04/28 03:56:43;;;;;;;12.23;7.00;;;;;;;13.42;67.34;100833.25;5374256;32;35387;-64
2022/04/28 03:59:45;;;;;;;11.13;5.77;;;;;;;13.38;67.00;100839.56;5357943;32;34932;-63
2022/04/28 04:02:48;;;;;;;11.23;6.17;;;;;;;13.16;65.34;100842.25;5372990;32;35360;-67
2022/04/28 04:05:51;;;;;;;10.27;5.78;;;;;;;12.44;69.34;100842.56;5358668;32;35815;-63
2022/04/28 04:08:53;;;;;;;9.93;5.53;;;;;;;13.12;67.18;100838.88;5361900;32;34570;-63
2022/04/28 04:11:55;;;;;;;10.97;5.90;;;;;;;13.16;66.30;100843.09;5370490;32;34382;-63
2022/04/28 04:14:57;;;;;;;9.13;5.03;;;;;;;12.70;66.81;100839.75;5359662;32;35104;-64
2022/04/28 04:18:00;;;;;;;11.03;6.07;;;;;;;13.20;65.32;100834.19;5373579;32;35037;-62
2022/04/28 04:21:02;;;;;;;10.13;5.12;;;;;;;13.19;65.28;100842.09;5354635;32;34102;-63
2022/04/28 04:24:04;;;;;;;12.00;5.30;;;;;;;12.68;66.51;100845.97;5374561;32;34258;-63
2022/04/28 04:27:07;;;;;;;11.23;5.33;;;;;;;13.59;64.13;100840.41;5354170;32;46085;-62
2022/04/28 04:33:31;;;;;;;10.43;5.93;;;;;;;12.93;65.57;100854.63;5376474;32;35038;-63
2022/04/28 04:36:35;;;;;;;10.60;5.73;;;;;;;13.06;65.33;100847.03;5370293;32;44508;-63
2022/04/28 04:39:38;;;;;;;9.17;5.43;;;;;;;13.34;64.72;100852.06;5377266;32;35725;-64
2022/04/28 04:42:40;;;;;;;12.35;6.00;;;;;;;12.61;66.52;100855.91;5361199;32;36562;-60
2022/04/28 04:45:42;;;;;;;11.40;7.07;;;;;;;12.99;66.26;100850.87;5372536;32;34220;-63
2022/04/28 04:48:45;;;;;;;9.93;5.80;;;;;;;13.69;63.40;100847.00;5345705;32;35079;-62
2022/04/28 04:51:47;;;;;;;13.37;5.63;;;;;;;12.84;65.42;100856.78;5359608;32;34839;-62
2022/04/28 04:54:49;;;;;;;11.30;5.63;;;;;;;13.69;62.91;100847.00;5383803;32;34831;-63
2022/04/28 04:57:51;;;;;;;9.63;5.60;;;;;;;13.25;63.69;100855.06;5359633;32;34347;-63
2022/04/28 05:00:54;;;;;;;10.83;5.87;;;;;;;13.30;65.12;100862.81;5375699;32;35132;-62
2022/04/28 05:03:56;;;;;;;11.20;5.75;;;;;;;13.71;63.09;100861.00;5356438;32;34496;-61
2022/04/28 05:06:59;;;;;;;9.98;5.68;;;;;;;13.42;62.85;100855.22;5364903;32;35339;-61
2022/04/28 05:10:01;;;;;;;11.00;5.60;;;;;;;13.29;63.97;100867.22;5367470;32;34696;-63
2022/04/28 05:13:04;;;;;;;10.20;6.00;;;;;;;12.98;63.97;100857.94;5358085;32;35420;-61
2022/04/28 05:16:06;;;;;;;9.57;5.50;;;;;;;13.67;61.92;100870.84;5373158;32;44437;-62
2022/04/28 05:19:08;;;;;;;12.33;5.63;;;;;;;12.70;64.67;100879.31;5347173;32;34758;-62
2022/04/28 05:22:10;;;;;;;9.77;5.70;;;;;;;13.89;61.16;100862.81;5367731;32;34482;-62
2022/04/28 05:25:13;;;;;;;11.77;6.60;;;;;;;13.25;63.00;100881.47;5359249;32;35267;-63
2022/04/28 05:28:15;;;;;;;10.97;6.13;;;;;;;13.61;63.23;100880.84;5359297;32;35112;-64
2022/04/28 05:31:17;;;;;;;11.63;6.37;;;;;;;13.66;61.95;100890.28;5353589;32;35266;-62
2022/04/28 05:34:20;;;;;;;11.48;6.10;;;;;;;13.89;61.24;100894.53;5362737;32;35923;-61
2022/04/28 05:37:23;;;;;;;11.63;6.75;;;;;;;13.64;61.93;100888.59;5371648;32;36559;-61
2022/04/28 05:40:25;;;;;;;15.00;7.05;;;;;;;13.63;62.51;100895.69;5357212;32;34358;-62
2022/04/28 05:46:53;;;;;;;11.00;5.60;;;;;;;13.85;61.53;100892.06;5351971;32;36239;-62
2022/04/28 05:49:55;;;;;;;13.03;7.53;;;;;;;13.71;60.99;100895.34;5344301;32;35007;-64
2022/04/28 05:52:57;;;;;;;23.53;9.53;;;;;;;14.46;59.58;100899.84;5374542;32;34614;-61
2022/04/28 05:55:59;;;;;;;13.37;5.47;;;;;;;13.96;61.79;100903.88;5355035;32;34124;-61
2022/04/28 05:59:02;;;;;;;11.50;7.00;;;;;;;14.08;60.21;100898.06;5372761;32;35561;-62
2022/04/28 06:02:04;;;;;;;11.50;5.97;;;;;;;13.94;61.95;100900.47;5354791;32;34140;-62
2022/04/28 06:05:07;;;;;;;10.00;5.35;;;;;;;14.65;58.81;100897.22;5365369;32;45144;-65
2022/04/28 06:08:09;;;;;;;10.07;5.85;;;;;;;14.12;59.80;100896.12;5355718;32;34025;-65
2022/04/28 06:11:12;;;;;;;10.80;5.97;;;;;;;14.02;60.32;100902.75;5357653;32;34113;-62
2022/04/28 06:14:14;;;;;;;10.87;6.00;;;;;;;14.65;58.64;100902.53;5376525;32;35600;-62
2022/04/28 06:17:19;;;;;;;11.33;5.40;;;;;;;14.52;59.24;100905.75;5358098;32;34034;-66
2022/04/28 06:20:21;;;;;;;14.43;5.67;;;;;;;14.39;57.77;100909.88;5371825;32;34292;-67
2022/04/28 06:23:23;;;;;;;13.33;5.90;;;;;;;14.90;57.08;100908.34;5363757;32;36381;-64
2022/04/28 06:26:25;;;;;;;14.17;6.07;;;;;;;14.72;57.46;100919.81;5346710;32;33934;-64
2022/04/28 06:29:27;;;;;;;13.67;6.50;;;;;;;14.85;56.75;100919.16;5370049;32;35687;-67
2022/04/28 06:32:30;;;;;;;13.40;5.77;;;;;;;15.10;56.34;100920.59;5363914;32;35091;-63
2022/04/28 06:35:33;;;;;;;14.00;5.60;;;;;;;14.82;56.68;100923.75;5376734;32;34169;-63
2022/04/28 06:38:36;;;;;;;15.50;6.07;;;;;;;15.65;54.80;100913.41;5355235;32;44496;-66
2022/04/28 06:41:38;;;;;;;13.73;5.72;;;;;;;15.50;54.37;100914.16;5367892;32;35346;-68
2022/04/28 06:44:41;;;;;;;12.33;4.87;;;;;;;15.05;55.36;100917.31;5346834;32;34208;-64
2022/04/28 06:47:43;;;;;;;9.75;4.93;;;;;;;15.23;54.81;100916.41;5347769;32;34987;-63
2022/04/28 06:50:45;;;;;;;11.63;5.13;;;;;;;15.14;54.59;100919.53;5345120;32;34679;-61
2022/04/28 06:53:47;;;;;;;9.93;4.50;;;;;;;15.45;53.35;100913.53;5333658;32;35498;-69
2022/04/28 06:56:50;;;;;;;14.50;4.90;;;;;;;15.60;52.88;100915.41;5362768;32;35117;-63
2022/04/28 06:59:52;;;;;;;11.07;5.00;;;;;;;15.67;53.26;100919.50;5362226;32;34151;-66
2022/04/28 07:02:54;;;;;;;16.50;5.30;;;;;;;14.95;55.24;100926.66;5374076;32;35337;-65
2022/04/28 07:05:56;;;;;;;15.53;4.50;;;;;;;15.48;54.10;100916.03;5363503;32;35236;-63
2022/04/28 07:08:59;;;;;;;9.60;5.10;;;;;;;15.53;53.39;100914.03;5367553;32;34331;-63
2022/04/28 07:12:03;;;;;;;7.65;4.40;;;;;;;16.17;51.77;100913.31;5373043;32;35844;-62
2022/04/28 07:15:07;;;;;;;8.47;3.93;;;;;;;15.90;51.38;100906.81;5358272;32;44466;-63
2022/04/28 07:18:11;;;;;;;10.23;4.82;;;;;;;15.34;52.98;100914.09;5372514;32;33742;-60
2022/04/28 07:21:14;;;;;;;10.67;4.27;;;;;;;15.43;54.05;100918.06;5359536;32;34209;-66
2022/04/28 07:24:16;;;;;;;10.67;4.80;;;;;;;15.25;53.59;100924.28;5376579;32;35270;-61
2022/04/28 07:27:18;;;;;;;12.63;4.50;;;;;;;15.23;54.11;100921.72;5351270;32;368203;-64
2022/04/28 07:30:21;;;;;;;8.63;4.10;;;;;;;16.57;50.05;100919.09;5366184;32;34001;-63
2022/04/28 07:33:23;;;;;;;8.88;4.45;;;;;;;15.33;53.49;100930.06;5368298;32;35300;-61
2022/04/28 07:36:26;;;;;;;11.73;4.87;;;;;;;16.01;51.40;100936.28;5362250;32;35790;-63
2022/04/28 07:39:28;;;;;;;8.90;4.17;;;;;;;15.85;52.23;100940.69;5364458;32;33487;-66
2022/04/28 07:42:30;;;;;;;14.33;4.70;;;;;;;16.50;49.42;100938.94;5363338;32;35517;-62
2022/04/28 07:45:33;;;;;;;9.10;4.63;;;;;;;16.85;48.19;100938.78;5373952;32;35388;-67
2022/04/28 07:48:35;;;;;;;8.52;4.07;;;;;;;17.12;48.25;100939.88;5331983;32;43868;-61
2022/04/28 07:51:37;;;;;;;9.30;4.57;;;;;;;16.01;50.37;100952.19;5357580;32;34383;-73
2022/04/28 07:54:40;;;;;;;7.03;3.83;;;;;;;17.20;48.05;100944.78;5364617;32;34310;-65
2022/04/28 07:57:42;;;;;;;7.82;4.25;;;;;;;15.73;50.10;100936.88;5357034;32;35400;-76
2022/04/28 08:00:44;;;;;;;13.93;4.07;;;;;;;16.45;48.61;100941.84;5364587;32;34211;-62
2022/04/28 08:03:47;;;;;;;12.13;5.43;;;;;;;16.24;47.99;100945.66;5369209;32;33959;-78
2022/04/28 08:06:49;;;;;;;8.93;4.10;;;;;;;17.22;45.76;100953.50;5371192;32;34210;-69
2022/04/28 08:09:51;;;;;;;9.73;4.27;;;;;;;16.62;46.37;100942.72;5361349;32;35521;-65
2022/04/28 08:12:54;;;;;;;10.20;5.15;;;;;;;17.11;45.99;100945.28;5349724;32;34069;-65
2022/04/28 08:15:57;;;;;;;7.93;3.87;;;;;;;17.37;45.77;100947.28;5346857;32;34959;-63
2022/04/28 08:19:01;;;;;;;12.73;4.50;;;;;;;17.85;44.28;100946.22;5358062;32;35147;-67
2022/04/28 08:22:03;;;;;;;8.17;3.90;;;;;;;18.49;42.87;100936.06;5369408;32;34173;-65
2022/04/28 08:25:08;;;;;;;9.63;3.87;;;;;;;17.84;44.51;100944.50;5360581;32;44490;-70
2022/04/28 08:28:10;;;;;;;9.60;4.60;;;;;;;18.90;42.48;100945.87;5374670;32;35393;-65
2022/04/28 08:31:12;;;;;;;10.50;3.77;;;;;;;18.83;43.03;100948.09;5353574;32;34122;-66
2022/04/28 08:34:22;;;;;;;10.50;3.73;;;;;;;19.75;39.92;100953.50;5353665;32;33669;-64
2022/04/28 08:37:24;;;;;;;9.13;3.90;;;;;;;20.49;38.01;100954.59;5361947;32;33059;-67
2022/04/28 08:40:26;;;;;;;7.82;3.55;;;;;;;19.69;37.83;100953.06;5362221;32;34136;-67
2022/04/28 08:43:31;;;;;;;7.22;3.17;;;;;;;20.07;36.03;100949.56;5371901;32;35655;-67
2022/04/28 08:46:51;;;;;;;8.10;3.10;;;;;;;19.53;36.82;100957.72;5345812;32;33410;-66
2022/04/28 08:49:54;;;;;;;6.97;3.30;;;;;;;20.08;35.28;100960.13;5352665;32;35181;-70
2022/04/28 08:52:56;;;;;;;;;;;;;;;18.86;36.98;100963.84;5363389;32;35250;-68
2022/04/28 08:55:58;;;;;;;6.10;3.00;;;;;;;18.57;37.10;100963.03;5351768;32;34919;-65
2022/04/28 08:59:01;;;;;;;9.82;3.92;;;;;;;18.88;37.05;100961.09;5379785;32;32967;-70
2022/04/28 09:02:04;;;;;;;7.23;3.70;;;;;;;19.52;36.40;100962.19;5363700;32;35629;-65
2022/04/28 09:05:08;;;;;;;7.20;3.70;;;;;;;19.93;36.07;100956.72;5362401;32;44312;-65
2022/04/28 09:08:12;;;;;;;7.57;3.10;;;;;;;20.21;34.88;100960.97;5361122;32;34119;-66
2022/04/28 09:11:28;;;;;;;7.07;3.60;;;;;;;19.69;35.64;100963.72;5363501;32;35055;-67
2022/04/28 09:14:31;;;;;;;6.67;3.57;;;;;;;19.61;35.73;100960.75;5374853;32;33693;-69
2022/04/28 09:17:40;;;;;;;8.73;3.40;;;;;;;20.46;34.38;100960.13;5358761;32;35397;-69
2022/04/28 09:20:44;;;;;;;6.73;3.67;;;;;;;21.06;33.51;100947.78;5362052;32;44816;-67
2022/04/28 09:23:52;;;;;;;6.50;3.65;;;;;;;21.71;32.31;100959.88;5365388;32;34319;-69
2022/04/28 09:26:55;;;;;;;8.00;3.60;;;;;;;21.13;32.67;100959.72;5362567;32;34186;-70
2022/04/28 09:29:59;;;;;;;5.68;2.97;;;;;;;22.31;30.82;100937.34;5372004;32;35322;-70
2022/04/28 09:33:09;;;;;;;8.18;3.53;;;;;;;22.74;30.14;100955.31;5363716;32;34188;-70
2022/04/28 09:36:13;;;;;;;9.95;3.50;;;;;;;21.83;31.70;100961.56;5362175;32;44435;-68
2022/04/28 09:42:29;;;;;;;8.03;3.73;;;;;;;22.13;31.60;100956.56;5364575;32;35707;-67
2022/04/28 09:42:40;;;;;;;7.97;3.93;;;;;;;22.13;31.26;100959.22;5362210;32;46882;-67
2022/04/28 09:45:43;;;;;;;7.00;3.70;;;;;;;22.29;31.08;100958.03;5368975;32;34162;-64
2022/04/28 09:48:46;;;;;;;6.03;3.40;;;;;;;21.94;31.86;100960.75;5342449;32;34208;-69
2022/04/28 09:51:57;;;;;;;7.05;3.60;;;;;;;18.97;37.26;100972.97;5355437;32;36271;-69
2022/04/28 09:55:01;;;;;;;6.73;3.90;;;;;;;20.31;35.14;100971.88;5365006;32;35717;-66
2022/04/28 09:58:07;;;;;;;7.97;3.63;;;;;;;20.94;33.78;100976.25;5375130;32;37094;-69
2022/04/28 10:01:10;;;;;;;10.80;3.73;;;;;;;19.83;35.88;100979.63;5356960;32;44497;-72
2022/04/28 10:04:12;;;;;;;5.87;3.50;;;;;;;19.95;35.40;100970.78;5349628;32;34809;-80
2022/04/28 10:07:15;;;;;;;6.70;3.80;;;;;;;19.40;36.53;100974.53;5362950;32;34142;-75
2022/04/28 10:10:18;;;;;;;7.90;3.73;;;;;;;20.62;34.70;100967.06;5363578;32;35577;-75
2022/04/28 10:13:21;;;;;;;9.48;4.15;;;;;;;20.10;35.23;100970.72;5374443;32;34212;-70
2022/04/28 10:16:24;;;;;;;10.60;3.93;;;;;;;20.54;35.34;100968.47;5357711;32;35506;-73
2022/04/28 10:19:27;;;;;;;;;;;;;;;19.14;37.12;100970.06;5357415;32;33993;-70
2022/04/28 10:22:33;;;;;;;10.07;3.40;;;;;;;20.14;35.61;100966.84;5360682;32;34268;-64
2022/04/28 10:32:55;;;;;;;6.37;3.77;;;;;;;19.26;37.11;100961.28;5357811;32;34146;-66
2022/04/28 10:36:01;;;;;;;6.13;3.50;;;;;;;19.05;37.43;100960.84;5362114;32;35610;-69
2022/04/28 10:39:08;;;;;;;8.03;3.70;;;;;;;19.15;36.81;100966.44;5375474;32;33405;-81
2022/04/28 10:42:15;;;;;;;7.90;4.53;;;;;;;19.89;35.27;100960.56;5347424;32;45490;-82
2022/04/28 10:45:25;;;;;;;5.77;3.47;;;;;;;20.70;33.70;100964.69;5369404;32;34151;-74
2022/04/28 10:48:35;;;;;;;8.90;3.80;;;;;;;19.82;34.96;100969.94;5340097;32;34016;-64
2022/04/28 10:51:42;;;;;;;6.93;3.50;;;;;;;20.58;33.80;100963.75;5365479;32;44867;-70
2022/04/28 10:54:45;;;;;;;6.57;3.27;;;;;;;21.36;32.06;100968.72;5379421;32;34234;-80
2022/04/28 10:57:47;;;;;;;7.07;3.95;;;;;;;19.78;34.00;100970.28;5366578;32;34048;-72
2022/04/28 11:01:00;;;;;;;5.93;3.50;;;;;;;20.04;33.65;100966.66;5359526;32;34122;-74
2022/04/28 11:04:06;;;;;;;6.53;3.10;;;;;;;19.85;34.33;100967.06;5361256;32;34261;-72
2022/04/28 11:07:17;;;;;;;7.53;4.03;;;;;;;20.37;32.92;100976.78;5367084;32;44489;-73
2022/04/28 11:10:21;;;;;;;8.25;3.50;;;;;;;20.83;32.48;100984.19;5369408;32;34031;-69
2022/04/28 11:13:24;;;;;;;7.40;3.17;;;;;;;19.59;34.29;100984.00;5346384;32;35358;-66
2022/04/28 11:16:27;;;;;;;7.57;4.03;;;;;;;20.29;33.34;100980.00;5372633;32;34838;-73
2022/04/28 11:19:30;;;;;;;10.20;4.70;;;;;;;21.13;32.39;100977.59;5364944;32;34087;-69
2022/04/28 11:22:33;;;;;;;5.80;3.27;;;;;;;20.98;31.97;100984.88;5371318;32;36783;-71
2022/04/28 11:25:36;;;;;;;5.57;3.33;;;;;;;21.49;30.23;100985.56;5358221;32;46076;-71
2022/04/28 11:28:38;;;;;;;9.25;4.10;;;;;;;21.24;31.47;100986.50;5364711;32;36640;-71
2022/04/28 11:31:47;;;;;;;8.15;4.03;;;;;;;21.71;33.04;100981.28;5361581;32;34062;-72
2022/04/28 11:34:50;;;;;;;8.33;4.10;;;;;;;21.52;34.24;100988.00;5361208;32;35429;-77
2022/04/28 11:37:54;;;;;;;8.30;4.17;;;;;;;20.62;36.16;100991.09;5382642;32;35955;-78
2022/04/28 11:41:03;;;;;;;7.33;3.67;;;;;;;20.01;36.31;100997.06;5361234;32;33901;-73
2022/04/28 11:44:11;;;;;;;8.93;4.07;;;;;;;20.87;35.47;100993.72;5374686;32;44447;-66
2022/04/28 11:47:13;;;;;;;8.40;4.30;;;;;;;21.16;34.82;100993.37;5344312;32;35309;-71
2022/04/28 11:50:26;;;;;;;7.15;3.55;;;;;;;20.00;36.32;100999.84;5341600;32;36021;-80
2022/04/28 11:53:45;;;;;;;8.90;4.33;;;;;;;20.89;34.04;100994.44;5368546;32;35359;-73
2022/04/28 11:56:48;;;;;;;8.57;3.97;;;;;;;20.33;35.80;100991.28;5357999;32;34807;-68
2022/04/28 11:59:51;;;;;;;6.62;3.83;;;;;;;21.53;33.71;100992.38;5357614;32;34126;-73
2022/04/28 12:02:54;;;;;;;7.70;4.20;;;;;;;22.28;31.66;100988.44;5358456;32;35460;-78
2022/04/28 12:05:57;;;;;;;6.00;3.30;;;;;;;22.69;30.94;100980.66;5348265;32;37115;-70
2022/04/28 12:14:22;;;;;;;10.83;4.17;;;;;;;24.45;28.33;100976.59;5371238;32;35244;-74
2022/04/28 12:15:47;;;;;;;7.70;3.22;;;;;;;24.68;28.13;100982.63;5370310;32;34380;-69
2022/04/28 12:22:10;;;;;;;5.37;3.10;;;;;;;24.75;28.29;100977.56;5359254;32;44412;-69
2022/04/28 12:25:15;;;;;;;9.07;3.62;;;;;;;23.90;29.14;100983.22;5372897;32;37286;-78
2022/04/28 12:28:19;;;;;;;6.53;3.33;;;;;;;22.90;30.64;100983.44;5365054;32;34219;-69
2022/04/28 12:31:30;;;;;;;8.47;3.93;;;;;;;21.26;33.31;100999.78;5370115;32;33921;-74
2022/04/28 12:35:01;;;;;;;6.87;3.23;;;;;;;20.94;33.26;100991.44;5363242;32;35400;-81
2022/04/28 12:38:08;;;;;;;8.20;2.97;;;;;;;20.32;34.03;100994.94;5362826;32;34637;-69
2022/04/28 12:41:17;;;;;;;6.93;3.10;;;;;;;20.42;34.06;100995.16;5354369;32;44197;-72
2022/04/28 12:44:20;;;;;;;6.93;3.27;;;;;;;20.01;33.53;100991.72;5360193;32;35194;-68
2022/04/28 12:47:34;;;;;;;4.60;2.70;;;;;;;21.64;31.53;100986.22;5351431;32;34498;-66
2022/04/28 12:50:36;;;;;;;9.17;3.53;;;;;;;21.79;31.01;100986.88;5350706;32;44718;-70
2022/04/28 12:53:40;;;;;;;4.78;2.90;;;;;;;21.10;31.96;100992.87;5359909;32;33968;-68
2022/04/28 12:56:44;;;;;;;9.87;3.83;;;;;;;19.89;34.52;100989.03;5359690;32;34312;-71
2022/04/28 12:59:46;;;;;;;7.47;3.40;;;;;;;19.90;34.91;100983.63;5366240;32;35501;-70
2022/04/28 13:02:52;;;;;;;7.28;3.90;;;;;;;20.05;35.38;100986.19;5375751;32;34084;-70
2022/04/28 13:05:57;;;;;;;7.77;3.67;;;;;;;20.42;34.89;100992.50;5369378;32;34544;-71
2022/04/28 13:09:01;;;;;;;8.03;4.50;;;;;;;20.18;34.60;100997.72;5361693;32;34344;-73
2022/04/28 13:12:06;;;;;;;7.17;3.13;;;;;;;20.36;34.50;100985.75;5368625;32;34091;-85
2022/04/28 13:15:11;;;;;;;9.30;3.80;;;;;;;20.91;33.24;100987.16;5333744;32;44289;-70
2022/04/28 13:18:13;;;;;;;13.90;3.60;;;;;;;19.93;34.49;100995.88;5377947;32;35446;-73
2022/04/28 13:21:18;;;;;;;6.17;3.13;;;;;;;19.80;34.68;101003.03;5364149;32;35799;-71
2022/04/28 13:24:28;;;;;;;7.23;3.13;;;;;;;20.40;34.16;100997.91;5371504;32;33889;-67
2022/04/28 13:27:31;;;;;;;7.22;3.28;;;;;;;21.30;32.31;100996.75;5360903;32;34150;-68
2022/04/28 13:30:33;;;;;;;7.35;2.92;;;;;;;20.79;32.87;100993.37;5369620;32;34042;-73
2022/04/28 13:33:37;;;;;;;6.37;3.00;;;;;;;20.54;33.11;100992.50;5361036;32;43963;-67
2022/04/28 13:36:40;;;;;;;8.87;3.40;;;;;;;20.90;32.57;100992.63;5350404;32;35482;-73
2022/04/28 13:39:42;;;;;;;11.30;4.97;;;;;;;20.42;33.09;100989.81;5375266;32;34123;-71
2022/04/28 13:42:45;;;;;;;8.77;3.43;;;;;;;21.02;32.42;100994.41;5365700;32;36988;-70
2022/04/28 13:45:48;;;;;;;7.10;3.10;;;;;;;21.01;32.55;100993.56;5372097;32;34961;-70
2022/04/28 13:48:50;;;;;;;4.68;2.90;;;;;;;19.91;33.31;101001.34;5342442;32;34511;-68
2022/04/28 13:51:52;;;;;;;5.70;3.00;;;;;;;21.03;31.79;100994.28;5370588;32;34911;-74
2022/04/28 13:54:54;;;;;;;5.45;3.35;;;;;;;20.73;31.97;100991.16;5369972;32;33942;-73
2022/04/28 13:57:57;;;;;;;6.32;3.05;;;;;;;20.16;32.89;100988.97;5360054;32;34314;-67
2022/04/28 14:00:59;;;;;;;5.00;2.72;;;;;;;21.36;31.11;100984.75;5370866;32;35830;-80
2022/04/28 14:04:03;;;;;;;4.47;2.92;;;;;;;20.56;32.01;100984.38;5354344;32;34622;-68
2022/04/28 14:07:05;;;;;;;4.40;2.80;;;;;;;21.59;30.06;100980.38;5365579;32;44550;-75
2022/04/28 14:10:08;;;;;;;8.45;3.40;;;;;;;20.55;31.48;100980.00;5365766;32;35441;-75
2022/04/28 14:13:10;;;;;;;5.97;3.13;;;;;;;21.39;30.30;100981.88;5350395;32;35678;-77
2022/04/28 14:16:13;;;;;;;9.25;3.35;;;;;;;22.07;29.86;100959.66;5366396;32;35489;-75
2022/04/28 14:19:16;;;;;;;7.93;3.25;;;;;;;22.37;28.99;100968.97;5361113;32;35654;-74
2022/04/28 14:22:19;;;;;;;6.17;3.40;;;;;;;22.20;29.68;100972.97;5355809;32;35435;-74
2022/04/28 14:25:21;;;;;;;;;;;;;;;22.01;29.52;100967.34;5358262;32;34088;-74
2022/04/28 14:28:23;;;;;;;7.03;2.80;;;;;;;21.55;30.15;100958.34;5347996;32;34999;-74
2022/04/28 14:31:25;;;;;;;6.43;3.37;;;;;;;20.45;31.44;100973.59;5352474;32;34633;-74
2022/04/28 14:34:47;;;;;;;6.17;3.67;;;;;;;20.97;31.10;100985.87;5348206;32;37791;-75
2022/04/28 14:37:49;;;;;;;8.52;3.65;;;;;;;20.70;30.43;100978.03;5376295;32;34244;-75
2022/04/28 14:40:52;;;;;;;4.10;2.53;;;;;;;20.85;30.74;100970.72;5358453;32;34147;-74
2022/04/28 14:43:55;;;;;;;6.90;3.30;;;;;;;21.19;29.90;100969.97;5369543;32;35642;-74
2022/04/28 14:46:58;;;;;;;8.27;3.75;;;;;;;20.86;30.57;100956.41;5350347;32;36145;-76